createdAt,value
2019-01-09T00:01:56.369Z,-1.10
2019-01-09T00:04:26.035Z,-1.20
2019-01-09T00:06:55.731Z,-1.20
2019-01-09T00:09:25.447Z,-1.20
2019-01-09T00:11:55.133Z,-1.20
2019-01-09T00:14:24.862Z,-1.20
2019-01-09T00:16:54.514Z,-1.20
2019-01-09T00:19:24.207Z,-1.30
2019-01-09T00:21:53.907Z,-1.30
2019-01-09T00:24:23.644Z,-1.30
2019-01-09T00:26:53.555Z,-1.30
2019-01-09T00:29:23.255Z,-1.30
2019-01-09T00:31:52.947Z,-1.20
2019-01-09T00:34:22.631Z,-1.20
2019-01-09T00:36:52.290Z,-1.30
2019-01-09T00:39:22.014Z,-1.30
2019-01-09T00:41:51.795Z,-1.30
2019-01-09T00:44:21.470Z,-1.30
2019-01-09T00:46:51.167Z,-1.30
2019-01-09T00:49:20.927Z,-1.30
2019-01-09T00:51:50.595Z,-1.30
2019-01-09T00:54:20.274Z,-1.40
2019-01-09T00:56:50.100Z,-1.30
2019-01-09T00:59:20.044Z,-1.30
2019-01-09T01:02:01.383Z,-1.30
2019-01-09T01:05:17.568Z,-1.30
2019-01-09T01:08:23.115Z,-1.20
2019-01-09T01:11:17.895Z,-1.20
2019-01-09T01:14:42.112Z,-1.10
2019-01-09T01:18:10.758Z,-1.20
2019-01-09T01:21:09.327Z,-1.10
2019-01-09T01:24:31.984Z,-1.10
2019-01-09T01:27:23.450Z,-1.20
2019-01-09T01:30:15.429Z,-1.20
2019-01-09T01:33:29.044Z,-1.20
2019-01-09T01:36:54.493Z,-1.20
2019-01-09T01:40:08.301Z,-1.10
2019-01-09T01:43:13.341Z,-1.10
2019-01-09T01:45:56.277Z,-1.20
2019-01-09T01:49:09.857Z,-1.20
2019-01-09T01:52:35.764Z,-1.20
2019-01-09T01:55:39.794Z,-1.20
2019-01-09T01:58:28.823Z,-1.30
2019-01-09T02:01:38.654Z,-1.30
2019-01-09T02:04:41.730Z,-1.30
2019-01-09T02:07:56.369Z,-1.40
2019-01-09T02:11:08.941Z,-1.40
2019-01-09T02:14:26.647Z,-1.40
2019-01-09T02:17:46.086Z,-1.40
2019-01-09T02:20:59.581Z,-1.50
2019-01-09T02:24:28.106Z,-1.40
2019-01-09T02:27:27.326Z,-1.40
2019-01-09T02:30:31.637Z,-1.30
2019-01-09T02:33:01.703Z,-1.30
2019-01-09T02:35:31.413Z,-1.30
2019-01-09T02:38:01.076Z,-1.30
2019-01-09T02:40:30.755Z,-1.30
2019-01-09T02:43:00.426Z,-1.30
2019-01-09T02:45:30.161Z,-1.30
2019-01-09T02:47:59.883Z,-1.30
2019-01-09T02:50:29.603Z,-1.20
2019-01-09T02:52:59.397Z,-1.20
2019-01-09T02:55:29.077Z,-1.10
2019-01-09T02:57:58.833Z,-1.20
2019-01-09T03:00:28.488Z,-1.20
2019-01-09T03:02:58.164Z,-1.10
2019-01-09T03:05:27.858Z,-1.10
2019-01-09T03:07:57.548Z,-1.20
2019-01-09T03:10:27.250Z,-1.20
2019-01-09T03:12:56.912Z,-1.30
2019-01-09T03:15:26.685Z,-1.40
2019-01-09T03:17:56.395Z,-1.40
2019-01-09T03:20:26.068Z,-1.30
2019-01-09T03:22:55.722Z,-1.30
2019-01-09T03:25:25.427Z,-1.30
2019-01-09T03:27:55.084Z,-1.30
2019-01-09T03:30:24.750Z,-1.20
2019-01-09T03:32:54.481Z,-1.30
2019-01-09T03:35:24.177Z,-1.30
2019-01-09T03:37:53.911Z,-1.30
2019-01-09T03:40:23.565Z,-1.30
2019-01-09T03:42:53.245Z,-1.30
2019-01-09T03:45:22.952Z,-1.30
2019-01-09T03:47:52.645Z,-1.20
2019-01-09T03:50:22.321Z,-1.30
2019-01-09T03:52:51.998Z,-1.30
2019-01-09T03:55:21.742Z,-1.40
2019-01-09T03:57:51.397Z,-1.40
2019-01-09T04:00:21.330Z,-1.40
2019-01-09T04:02:51.038Z,-1.40
2019-01-09T04:05:20.859Z,-1.40
2019-01-09T04:07:50.539Z,-1.40
2019-01-09T04:10:20.202Z,-1.40
2019-01-09T04:12:49.916Z,-1.40
2019-01-09T04:15:19.692Z,-1.40
2019-01-09T04:17:49.387Z,-1.40
2019-01-09T04:20:19.118Z,-1.40
2019-01-09T04:22:49.110Z,-1.40
2019-01-09T04:25:20.559Z,-1.40
2019-01-09T04:27:50.253Z,-1.40
2019-01-09T04:30:19.969Z,-1.40
2019-01-09T04:32:49.622Z,-1.40
2019-01-09T04:35:19.311Z,-1.40
2019-01-09T04:37:48.989Z,-1.40
2019-01-09T04:40:18.671Z,-1.40
2019-01-09T04:42:48.378Z,-1.50
2019-01-09T04:45:18.038Z,-1.50
2019-01-09T04:47:47.723Z,-1.50
2019-01-09T04:50:17.431Z,-1.50
2019-01-09T04:52:47.140Z,-1.40
2019-01-09T04:55:16.837Z,-1.50
2019-01-09T04:57:46.524Z,-1.50
2019-01-09T05:00:16.526Z,-1.40
2019-01-09T05:02:46.199Z,-1.40
2019-01-09T05:05:15.876Z,-1.40
2019-01-09T05:07:45.603Z,-1.30
2019-01-09T05:10:15.279Z,-1.40
2019-01-09T05:12:44.974Z,-1.40
2019-01-09T05:15:14.670Z,-1.50
2019-01-09T05:17:44.406Z,-1.50
2019-01-09T05:20:14.072Z,-1.50
2019-01-09T05:22:43.744Z,-1.40
2019-01-09T05:25:13.422Z,-1.40
2019-01-09T05:27:43.135Z,-1.40
2019-01-09T05:30:12.880Z,-1.30
2019-01-09T05:32:42.560Z,-1.30
2019-01-09T05:35:12.202Z,-1.30
2019-01-09T05:37:41.911Z,-1.30
2019-01-09T05:40:11.623Z,-1.30
2019-01-09T05:42:41.290Z,-1.30
2019-01-09T05:45:11.034Z,-1.30
2019-01-09T05:47:40.693Z,-1.30
2019-01-09T05:50:10.491Z,-1.20
2019-01-09T05:52:40.614Z,-1.30
2019-01-09T05:55:10.922Z,-1.40
2019-01-09T05:57:42.092Z,-1.40
2019-01-09T06:00:11.774Z,-1.40
2019-01-09T06:02:41.461Z,-1.40
2019-01-09T06:05:11.203Z,-1.50
2019-01-09T06:07:40.877Z,-1.40
2019-01-09T06:10:12.637Z,-1.40
2019-01-09T06:12:42.299Z,-1.30
2019-01-09T06:15:11.983Z,-1.30
2019-01-09T06:17:41.707Z,-1.30
2019-01-09T06:20:11.397Z,-1.30
2019-01-09T06:22:41.086Z,-1.20
2019-01-09T06:25:10.873Z,-1.30
2019-01-09T06:27:40.575Z,-1.30
2019-01-09T06:30:10.272Z,-1.30
2019-01-09T06:32:40.033Z,-1.40
2019-01-09T06:35:09.722Z,-1.40
2019-01-09T06:37:39.415Z,-1.40
2019-01-09T06:40:09.222Z,-1.40
2019-01-09T06:42:38.903Z,-1.40
2019-01-09T06:45:08.708Z,-1.40
2019-01-09T06:47:38.409Z,-1.30
2019-01-09T06:50:12.279Z,-1.30
2019-01-09T06:52:41.995Z,-1.30
2019-01-09T06:55:13.320Z,-1.20
2019-01-09T06:57:42.961Z,-1.30
2019-01-09T07:00:12.730Z,-1.20
2019-01-09T07:02:42.419Z,-1.20
2019-01-09T07:05:12.111Z,-1.20
2019-01-09T07:07:41.814Z,-1.20
2019-01-09T07:10:11.523Z,-1.30
2019-01-09T07:12:41.226Z,-1.30
2019-01-09T07:15:11.553Z,-1.20
2019-01-09T07:17:42.210Z,-1.20
2019-01-09T07:20:11.866Z,-1.20
2019-01-09T07:22:41.584Z,-1.20
2019-01-09T07:25:11.247Z,-1.10
2019-01-09T07:27:40.928Z,-1.10
2019-01-09T07:30:11.390Z,-1.10
2019-01-09T07:32:41.102Z,-1.00
2019-01-09T07:35:10.822Z,-1.00
2019-01-09T07:37:45.407Z,-1.00
2019-01-09T07:40:11.895Z,-1.00
2019-01-09T07:42:41.559Z,-0.90
2019-01-09T07:45:11.457Z,-0.90
2019-01-09T07:47:41.169Z,-0.90
2019-01-09T07:50:11.026Z,-0.90
2019-01-09T07:52:40.691Z,-0.90
2019-01-09T07:55:10.409Z,-0.90
2019-01-09T07:57:40.127Z,-0.90
2019-01-09T08:00:11.621Z,-0.80
2019-01-09T08:02:41.315Z,-0.80
2019-01-09T08:05:10.987Z,-0.80
2019-01-09T08:07:40.694Z,-0.80
2019-01-09T08:10:11.094Z,-0.90
2019-01-09T08:12:40.831Z,-0.90
2019-01-09T08:15:11.458Z,-0.80
2019-01-09T08:17:41.107Z,-0.90
2019-01-09T08:20:10.921Z,-0.90
2019-01-09T08:22:40.648Z,-0.90
2019-01-09T08:25:10.323Z,-0.80
2019-01-09T08:27:40.013Z,-0.80
2019-01-09T08:30:10.577Z,-0.80
2019-01-09T08:32:40.242Z,-0.70
2019-01-09T08:35:10.070Z,-0.70
2019-01-09T08:37:39.744Z,-0.70
2019-01-09T08:40:10.429Z,-0.60
2019-01-09T08:42:40.163Z,-0.60
2019-01-09T08:45:10.010Z,-0.50
2019-01-09T08:47:39.672Z,-0.60
2019-01-09T08:50:10.356Z,-0.50
2019-01-09T08:52:40.111Z,-0.40
2019-01-09T08:55:10.166Z,-0.40
2019-01-09T08:57:39.883Z,-0.30
2019-01-09T09:00:11.534Z,-0.40
2019-01-09T09:02:41.227Z,-0.40
2019-01-09T09:05:11.043Z,-0.50
2019-01-09T09:07:40.831Z,-0.40
2019-01-09T09:10:12.568Z,-0.50
2019-01-09T09:12:42.285Z,-0.50
2019-01-09T09:15:15.049Z,-0.30
2019-01-09T09:17:44.749Z,-0.30
2019-01-09T09:20:14.409Z,-0.30
2019-01-09T09:22:44.114Z,-0.20
2019-01-09T09:25:13.819Z,-0.20
2019-01-09T09:27:44.438Z,-0.20
2019-01-09T09:30:14.899Z,-0.10
2019-01-09T09:32:44.593Z,-0.20
2019-01-09T09:35:14.377Z,-0.20
2019-01-09T09:37:44.056Z,-0.20
2019-01-09T09:40:16.535Z,-0.20
2019-01-09T09:42:46.203Z,-0.20
2019-01-09T09:45:15.996Z,-0.20
2019-01-09T09:47:45.694Z,-0.20
2019-01-09T09:50:16.458Z,-0.10
2019-01-09T09:52:47.409Z,-0.10
2019-01-09T09:55:17.119Z,-0.10
2019-01-09T09:57:46.799Z,0.00
2019-01-09T10:00:19.638Z,0.00
2019-01-09T10:02:49.338Z,0.00
2019-01-09T10:05:19.012Z,0.10
2019-01-09T10:07:49.832Z,0.10
2019-01-09T10:10:19.527Z,0.10
2019-01-09T10:12:49.222Z,0.10
2019-01-09T10:15:19.019Z,0.30
2019-01-09T10:17:48.702Z,0.40
2019-01-09T10:20:18.387Z,0.50
2019-01-09T10:22:48.641Z,0.50
2019-01-09T10:25:18.296Z,0.50
2019-01-09T10:27:47.947Z,0.60
2019-01-09T10:30:18.848Z,0.50
2019-01-09T10:32:48.518Z,0.50
2019-01-09T10:35:18.177Z,0.60
2019-01-09T10:37:49.261Z,0.70
2019-01-09T10:40:20.180Z,0.70
2019-01-09T10:42:49.945Z,0.80
2019-01-09T10:45:21.224Z,0.90
2019-01-09T10:47:50.896Z,0.90
2019-01-09T10:50:20.642Z,0.90
2019-01-09T10:52:50.334Z,0.80
2019-01-09T10:55:20.507Z,0.70
2019-01-09T10:57:50.175Z,0.70
2019-01-09T11:00:22.233Z,0.80
2019-01-09T11:02:51.995Z,0.90
2019-01-09T11:05:21.649Z,0.90
2019-01-09T11:07:51.345Z,1.00
2019-01-09T11:10:21.599Z,0.90
2019-01-09T11:12:51.446Z,0.80
2019-01-09T11:15:21.123Z,0.70
2019-01-09T11:17:50.802Z,0.80
2019-01-09T11:20:21.784Z,0.80
2019-01-09T11:22:53.381Z,0.70
2019-01-09T11:25:28.181Z,0.80
2019-01-09T11:27:57.952Z,0.80
2019-01-09T11:30:27.650Z,0.90
2019-01-09T11:32:57.319Z,1.00
2019-01-09T11:35:27.349Z,0.90
2019-01-09T11:37:57.039Z,0.80
2019-01-09T11:40:26.834Z,0.80
2019-01-09T11:42:56.555Z,0.90
2019-01-09T11:45:26.267Z,0.90
2019-01-09T11:47:55.966Z,0.80
2019-01-09T11:50:25.858Z,0.80
2019-01-09T11:52:55.591Z,0.80
2019-01-09T11:55:25.271Z,0.80
2019-01-09T11:57:54.946Z,0.90
2019-01-09T12:00:26.897Z,0.90
2019-01-09T12:02:56.690Z,1.00
2019-01-09T12:05:26.559Z,0.90
2019-01-09T12:07:56.311Z,0.80
2019-01-09T12:10:30.233Z,0.80
2019-01-09T12:12:57.974Z,0.80
2019-01-09T12:15:27.638Z,0.80
2019-01-09T12:17:57.296Z,0.80
2019-01-09T12:20:27.015Z,0.70
2019-01-09T12:22:56.702Z,0.60
2019-01-09T12:25:26.391Z,0.50
2019-01-09T12:27:56.109Z,0.50
2019-01-09T12:30:29.807Z,0.50
2019-01-09T12:32:59.555Z,0.50
2019-01-09T12:35:29.335Z,0.50
2019-01-09T12:37:59.039Z,0.50
2019-01-09T12:40:28.743Z,0.60
2019-01-09T12:42:58.440Z,0.60
2019-01-09T12:45:28.199Z,0.60
2019-01-09T12:47:57.933Z,0.60
2019-01-09T12:50:27.734Z,0.60
2019-01-09T12:52:57.500Z,0.60
2019-01-09T12:55:27.210Z,0.50
2019-01-09T12:57:57.634Z,0.40
2019-01-09T13:00:29.285Z,0.30
2019-01-09T13:02:59.070Z,0.20
2019-01-09T13:05:28.814Z,0.20
2019-01-09T13:07:58.508Z,0.10
2019-01-09T13:10:28.330Z,0.00
2019-01-09T13:12:58.055Z,0.00
2019-01-09T13:15:27.750Z,-0.10
2019-01-09T13:17:57.487Z,-0.10
2019-01-09T13:20:27.201Z,-0.20
2019-01-09T13:22:56.931Z,-0.20
2019-01-09T13:25:27.615Z,-0.30
2019-01-09T13:27:57.308Z,-0.30
2019-01-09T13:30:27.014Z,-0.40
2019-01-09T13:32:57.694Z,-0.50
2019-01-09T13:35:27.398Z,-0.50
2019-01-09T13:37:57.096Z,-0.60
2019-01-09T13:40:26.827Z,-0.70
2019-01-09T13:42:56.587Z,-0.60
2019-01-09T13:45:26.274Z,-0.70
2019-01-09T13:47:55.955Z,-0.70
2019-01-09T13:50:25.683Z,-0.70
2019-01-09T13:52:55.360Z,-0.70
2019-01-09T13:55:25.061Z,-0.70
2019-01-09T13:57:54.782Z,-0.60
2019-01-09T14:00:24.507Z,-0.60
2019-01-09T14:02:54.186Z,-0.60
2019-01-09T14:05:23.879Z,-0.60
2019-01-09T14:07:53.548Z,-0.60
2019-01-09T14:10:25.590Z,-0.60
2019-01-09T14:12:55.321Z,-0.70
2019-01-09T14:15:25.012Z,-0.70
2019-01-09T14:17:54.739Z,-0.70
2019-01-09T14:20:24.506Z,-0.70
2019-01-09T14:22:54.164Z,-0.70
2019-01-09T14:25:23.895Z,-0.70
2019-01-09T14:27:53.595Z,-0.80
2019-01-09T14:30:30.319Z,-0.80
2019-01-09T14:33:00.005Z,-0.70
2019-01-09T14:35:29.672Z,-0.70
2019-01-09T14:38:01.060Z,-0.80
2019-01-09T14:40:30.729Z,-0.70
2019-01-09T14:43:00.495Z,-0.70
2019-01-09T14:45:32.966Z,-0.70
2019-01-09T14:48:02.626Z,-0.70
2019-01-09T14:50:32.369Z,-0.70
2019-01-09T14:53:02.047Z,-0.80
2019-01-09T14:55:31.750Z,-0.70
2019-01-09T14:58:01.443Z,-0.70
2019-01-09T15:00:31.127Z,-0.80
2019-01-09T15:03:00.832Z,-0.70
2019-01-09T15:05:30.562Z,-0.80
2019-01-09T15:08:00.251Z,-0.80
2019-01-09T15:10:31.640Z,-0.70
2019-01-09T15:13:01.826Z,-0.70
2019-01-09T15:15:31.546Z,-0.80
2019-01-09T15:18:01.241Z,-0.80
2019-01-09T15:20:30.986Z,-0.70
2019-01-09T15:23:00.645Z,-0.80
2019-01-09T15:25:30.710Z,-0.70
2019-01-09T15:28:01.039Z,-0.80
2019-01-09T15:30:31.951Z,-0.80
2019-01-09T15:33:02.646Z,-0.90
2019-01-09T15:35:32.333Z,-1.00
2019-01-09T15:38:02.024Z,-1.00
2019-01-09T15:40:32.627Z,-1.00
2019-01-09T15:43:02.283Z,-1.00
2019-01-09T15:45:31.922Z,-1.00
2019-01-09T15:48:01.835Z,-1.00
2019-01-09T15:50:33.587Z,-1.00
2019-01-09T15:53:03.453Z,-1.10
2019-01-09T15:55:33.348Z,-1.10
2019-01-09T15:58:03.017Z,-1.10
2019-01-09T16:00:53.929Z,-1.10
2019-01-09T16:03:23.643Z,-1.10
2019-01-09T16:05:53.315Z,-1.20
2019-01-09T16:08:25.237Z,-1.10
2019-01-09T16:10:54.908Z,-1.10
2019-01-09T16:13:26.001Z,-1.10
2019-01-09T16:15:55.731Z,-1.10
2019-01-09T16:18:25.498Z,-1.10
2019-01-09T16:20:55.180Z,-1.20
2019-01-09T16:23:24.922Z,-1.20
2019-01-09T16:25:54.652Z,-1.20
2019-01-09T16:28:24.926Z,-1.20
2019-01-09T16:31:24.510Z,-1.20
2019-01-09T16:33:54.205Z,-1.20
2019-01-09T16:36:23.958Z,-1.20
2019-01-09T16:38:53.727Z,-1.30
2019-01-09T16:41:23.401Z,-1.30
2019-01-09T16:43:55.321Z,-1.30
2019-01-09T16:46:25.065Z,-1.30
2019-01-09T16:48:54.736Z,-1.40
2019-01-09T16:51:24.575Z,-1.50
2019-01-09T16:53:54.257Z,-1.50
2019-01-09T16:56:23.939Z,-1.50
2019-01-09T16:58:53.767Z,-1.50
2019-01-09T17:01:25.033Z,-1.50
2019-01-09T17:03:56.333Z,-1.60
2019-01-09T17:06:26.081Z,-1.60
2019-01-09T17:08:57.139Z,-1.60
2019-01-09T17:11:26.852Z,-1.50
2019-01-09T17:13:56.572Z,-1.50
2019-01-09T17:16:26.299Z,-1.50
2019-01-09T17:18:57.008Z,-1.50
2019-01-09T17:21:27.342Z,-1.60
2019-01-09T17:23:57.023Z,-1.60
2019-01-09T17:26:27.690Z,-1.70
2019-01-09T17:28:57.394Z,-1.70
2019-01-09T17:31:27.070Z,-1.70
2019-01-09T17:33:56.786Z,-1.70
2019-01-09T17:36:28.457Z,-1.70
2019-01-09T17:38:58.245Z,-1.70
2019-01-09T17:41:27.947Z,-1.80
2019-01-09T17:43:57.962Z,-1.70
2019-01-09T17:46:27.728Z,-1.80
2019-01-09T17:48:59.301Z,-1.80
2019-01-09T17:51:28.990Z,-1.80
2019-01-09T17:53:58.666Z,-1.80
2019-01-09T17:56:28.374Z,-1.90
2019-01-09T17:58:58.108Z,-1.90
2019-01-09T18:01:27.788Z,-2.00
2019-01-09T18:03:57.527Z,-2.00
2019-01-09T18:06:27.215Z,-1.90
2019-01-09T18:08:56.918Z,-2.00
2019-01-09T18:11:26.680Z,-2.00
2019-01-09T18:13:56.426Z,-2.00
2019-01-09T18:16:26.090Z,-2.00
2019-01-09T18:18:55.873Z,-2.10
2019-01-09T18:21:25.559Z,-2.20
2019-01-09T18:23:55.231Z,-2.30
2019-01-09T18:26:25.017Z,-2.40
2019-01-09T18:28:54.825Z,-2.40
2019-01-09T18:31:49.053Z,-2.40
2019-01-09T18:34:38.311Z,-2.40
2019-01-09T18:37:42.359Z,-2.40
2019-01-09T18:40:48.413Z,-2.50
2019-01-09T18:43:38.445Z,-2.50
2019-01-09T18:46:47.706Z,-2.50
2019-01-09T18:49:53.385Z,-2.50
2019-01-09T18:52:51.120Z,-2.50
2019-01-09T18:55:21.336Z,-2.50
2019-01-09T18:57:51.047Z,-2.60
2019-01-09T19:00:23.271Z,-2.60
2019-01-09T19:02:54.450Z,-2.70
2019-01-09T19:05:24.404Z,-2.60
2019-01-09T19:07:54.214Z,-2.70
2019-01-09T19:10:25.145Z,-2.70
2019-01-09T19:12:54.939Z,-2.70
2019-01-09T19:15:24.663Z,-2.70
2019-01-09T19:17:54.397Z,-2.70
2019-01-09T19:20:24.111Z,-2.80
2019-01-09T19:22:54.399Z,-2.80
2019-01-09T19:25:24.539Z,-2.80
2019-01-09T19:27:54.211Z,-2.80
2019-01-09T19:30:26.785Z,-2.80
2019-01-09T19:32:56.619Z,-2.90
2019-01-09T19:35:26.292Z,-3.00
2019-01-09T19:37:56.016Z,-3.10
2019-01-09T19:40:25.725Z,-3.20
2019-01-09T19:42:55.496Z,-3.20
2019-01-09T19:45:25.175Z,-3.30
2019-01-09T19:47:55.024Z,-3.40
2019-01-09T19:50:25.659Z,-3.40
2019-01-09T19:52:55.667Z,-3.50
2019-01-09T19:55:25.828Z,-3.50
2019-01-09T19:57:55.676Z,-3.60
2019-01-09T20:00:26.507Z,-3.70
2019-01-09T20:02:56.333Z,-3.80
2019-01-09T20:05:26.119Z,-3.80
2019-01-09T20:07:57.626Z,-3.80
2019-01-09T20:10:28.631Z,-3.70
2019-01-09T20:12:59.060Z,-3.70
2019-01-09T20:15:28.797Z,-3.70
2019-01-09T20:17:58.748Z,-3.70
2019-01-09T20:20:28.470Z,-3.80
2019-01-09T20:22:58.239Z,-3.80
2019-01-09T20:25:27.988Z,-3.80
2019-01-09T20:27:57.865Z,-3.80
2019-01-09T20:30:29.853Z,-3.90
2019-01-09T20:32:59.559Z,-4.00
2019-01-09T20:35:29.260Z,-4.00
2019-01-09T20:37:58.927Z,-4.00
2019-01-09T20:40:28.712Z,-4.10
2019-01-09T20:42:58.844Z,-4.20
2019-01-09T20:45:29.745Z,-4.20
2019-01-09T20:47:59.901Z,-4.20
2019-01-09T20:50:31.672Z,-4.20
2019-01-09T20:53:01.362Z,-4.20
2019-01-09T20:55:31.533Z,-4.20
2019-01-09T20:58:01.355Z,-4.10
2019-01-09T21:00:31.734Z,-4.10
2019-01-09T21:03:04.575Z,-4.10
2019-01-09T21:05:45.881Z,-4.20
2019-01-09T21:08:15.644Z,-4.30
2019-01-09T21:10:45.460Z,-4.30
2019-01-09T21:13:15.132Z,-4.40
2019-01-09T21:15:45.397Z,-4.40
2019-01-09T21:18:15.122Z,-4.30
2019-01-09T21:20:44.953Z,-4.40
2019-01-09T21:23:14.827Z,-4.30
2019-01-09T21:25:44.522Z,-4.30
2019-01-09T21:28:20.999Z,-4.30
2019-01-09T21:30:51.020Z,-4.20
2019-01-09T21:33:22.901Z,-4.10
2019-01-09T21:35:52.579Z,-4.00
2019-01-09T21:38:22.270Z,-4.00
2019-01-09T21:40:52.013Z,-3.90
2019-01-09T21:43:21.715Z,-3.90
2019-01-09T21:45:51.735Z,-3.90
2019-01-09T21:48:21.484Z,-3.80
2019-01-09T21:50:51.176Z,-3.90
2019-01-09T21:53:21.244Z,-3.90
2019-01-09T21:55:50.991Z,-3.90
2019-01-09T21:58:20.803Z,-3.90
2019-01-09T22:00:50.536Z,-4.00
2019-01-09T22:03:20.222Z,-4.00
2019-01-09T22:05:49.931Z,-4.00
2019-01-09T22:08:19.790Z,-4.00
2019-01-09T22:10:49.562Z,-4.10
2019-01-09T22:13:19.250Z,-4.10
2019-01-09T22:15:48.999Z,-4.10
2019-01-09T22:18:18.740Z,-4.00
2019-01-09T22:20:48.428Z,-4.00
2019-01-09T22:23:20.651Z,-4.00
2019-01-09T22:25:50.386Z,-4.00
2019-01-09T22:28:20.609Z,-4.00
2019-01-09T22:30:50.315Z,-3.90
2019-01-09T22:33:20.015Z,-3.90
2019-01-09T22:35:49.743Z,-3.90
2019-01-09T22:38:19.430Z,-3.90
2019-01-09T22:40:49.277Z,-3.90
2019-01-09T22:43:18.960Z,-3.90
2019-01-09T22:45:48.643Z,-3.90
2019-01-09T22:48:18.378Z,-4.00
2019-01-09T22:50:48.130Z,-4.00
2019-01-09T22:53:17.815Z,-4.00
2019-01-09T22:55:47.542Z,-3.90
2019-01-09T22:58:17.303Z,-3.90
2019-01-09T23:01:08.043Z,-3.90
2019-01-09T23:03:38.327Z,-3.80
2019-01-09T23:06:10.677Z,-3.80
2019-01-09T23:08:40.714Z,-3.80
2019-01-09T23:11:10.491Z,-3.90
2019-01-09T23:13:40.451Z,-3.90
2019-01-09T23:16:11.997Z,-3.90
2019-01-09T23:18:41.870Z,-3.90
2019-01-09T23:21:11.549Z,-3.90
2019-01-09T23:23:41.379Z,-3.90
2019-01-09T23:26:11.079Z,-3.90
2019-01-09T23:28:40.780Z,-3.90
2019-01-09T23:31:10.770Z,-4.00
2019-01-09T23:33:40.521Z,-3.90
2019-01-09T23:36:10.410Z,-4.00
2019-01-09T23:38:40.154Z,-4.00
2019-01-09T23:41:09.886Z,-4.00
2019-01-09T23:43:39.563Z,-4.10
2019-01-09T23:46:09.805Z,-4.10
2019-01-09T23:48:39.491Z,-4.10
2019-01-09T23:51:09.184Z,-4.20
2019-01-09T23:53:38.855Z,-4.10
2019-01-09T23:56:08.720Z,-4.10
2019-01-09T23:58:38.393Z,-4.00
